sensor_id;sensor_type;location;lat;lon;timestamp;temperature;humidity
66962;HTU21D;53897;51.126;5.868;2023-02-23T00:00:30;22.33;46.02
66962;HTU21D;53897;51.126;5.868;2023-02-23T00:02:59;22.29;45.99
66962;HTU21D;53897;51.126;5.868;2023-02-23T00:05:27;22.31;45.98
66962;HTU21D;53897;51.126;5.868;2023-02-23T00:07:54;22.28;45.99
66962;HTU21D;53897;51.126;5.868;2023-02-23T00:10:21;22.27;45.96
66962;HTU21D;53897;51.126;5.868;2023-02-23T00:12:56;22.26;45.94
66962;HTU21D;53897;51.126;5.868;2023-02-23T00:15:23;22.24;45.94
66962;HTU21D;53897;51.126;5.868;2023-02-23T00:17:54;22.23;45.93
66962;HTU21D;53897;51.126;5.868;2023-02-23T00:20:22;22.20;45.93
66962;HTU21D;53897;51.126;5.868;2023-02-23T00:22:55;22.20;45.92
66962;HTU21D;53897;51.126;5.868;2023-02-23T00:32:37;22.14;45.84
66962;HTU21D;53897;51.126;5.868;2023-02-23T00:35:03;22.13;45.84
66962;HTU21D;53897;51.126;5.868;2023-02-23T00:37:28;22.12;45.84
66962;HTU21D;53897;51.126;5.868;2023-02-23T00:39:55;22.10;45.83
66962;HTU21D;53897;51.126;5.868;2023-02-23T00:42:22;22.09;45.80
66962;HTU21D;53897;51.126;5.868;2023-02-23T00:44:49;22.07;45.80
66962;HTU21D;53897;51.126;5.868;2023-02-23T00:47:15;22.08;45.77
66962;HTU21D;53897;51.126;5.868;2023-02-23T00:49:41;22.06;45.74
66962;HTU21D;53897;51.126;5.868;2023-02-23T00:52:10;22.05;45.73
66962;HTU21D;53897;51.126;5.868;2023-02-23T00:54:35;22.04;45.73
66962;HTU21D;53897;51.126;5.868;2023-02-23T00:57:01;22.03;45.72
66962;HTU21D;53897;51.126;5.868;2023-02-23T00:59:26;22.01;45.73
66962;HTU21D;53897;51.126;5.868;2023-02-23T01:01:54;21.99;45.72
66962;HTU21D;53897;51.126;5.868;2023-02-23T01:04:20;21.99;45.72
66962;HTU21D;53897;51.126;5.868;2023-02-23T01:06:47;21.98;45.71
66962;HTU21D;53897;51.126;5.868;2023-02-23T01:09:15;21.96;45.69
66962;HTU21D;53897;51.126;5.868;2023-02-23T01:11:51;21.95;45.70
66962;HTU21D;53897;51.126;5.868;2023-02-23T01:14:17;21.95;45.69
66962;HTU21D;53897;51.126;5.868;2023-02-23T01:16:42;21.94;45.64
66962;HTU21D;53897;51.126;5.868;2023-02-23T01:19:09;21.92;45.61
66962;HTU21D;53897;51.126;5.868;2023-02-23T01:21:37;21.93;45.59
66962;HTU21D;53897;51.126;5.868;2023-02-23T01:24:04;21.91;45.57
66962;HTU21D;53897;51.126;5.868;2023-02-23T01:26:32;21.89;45.60
66962;HTU21D;53897;51.126;5.868;2023-02-23T01:29:07;21.88;45.58
66962;HTU21D;53897;51.126;5.868;2023-02-23T01:31:34;21.87;45.57
66962;HTU21D;53897;51.126;5.868;2023-02-23T01:34:02;21.84;45.56
66962;HTU21D;53897;51.126;5.868;2023-02-23T01:36:34;21.84;45.55
66962;HTU21D;53897;51.126;5.868;2023-02-23T01:39:01;21.83;45.54
66962;HTU21D;53897;51.126;5.868;2023-02-23T01:41:30;21.81;45.54
66962;HTU21D;53897;51.126;5.868;2023-02-23T01:44:07;21.82;45.53
66962;HTU21D;53897;51.126;5.868;2023-02-23T01:46:45;21.80;45.51
66962;HTU21D;53897;51.126;5.868;2023-02-23T01:49:32;21.78;45.51
66962;HTU21D;53897;51.126;5.868;2023-02-23T01:52:03;21.77;45.51
66962;HTU21D;53897;51.126;5.868;2023-02-23T01:54:39;21.77;45.52
66962;HTU21D;53897;51.126;5.868;2023-02-23T01:57:10;21.76;45.51
66962;HTU21D;53897;51.126;5.868;2023-02-23T01:59:41;21.74;45.51
66962;HTU21D;53897;51.126;5.868;2023-02-23T02:02:08;21.74;45.52
66962;HTU21D;53897;51.126;5.868;2023-02-23T02:04:36;21.72;45.55
66962;HTU21D;53897;51.126;5.868;2023-02-23T02:07:18;21.72;45.58
66962;HTU21D;53897;51.126;5.868;2023-02-23T02:09:49;21.70;45.59
66962;HTU21D;53897;51.126;5.868;2023-02-23T02:12:33;21.68;45.57
66962;HTU21D;53897;51.126;5.868;2023-02-23T02:15:02;21.68;45.57
66962;HTU21D;53897;51.126;5.868;2023-02-23T02:20:59;21.65;45.59
66962;HTU21D;53897;51.126;5.868;2023-02-23T02:27:36;21.62;45.54
66962;HTU21D;53897;51.126;5.868;2023-02-23T02:30:07;21.61;45.54
66962;HTU21D;53897;51.126;5.868;2023-02-23T02:39:25;21.57;45.53
66962;HTU21D;53897;51.126;5.868;2023-02-23T02:44:58;21.54;45.52
66962;HTU21D;53897;51.126;5.868;2023-02-23T02:47:44;21.54;45.50
66962;HTU21D;53897;51.126;5.868;2023-02-23T02:50:28;21.53;45.50
66962;HTU21D;53897;51.126;5.868;2023-02-23T02:53:07;21.51;45.50
66962;HTU21D;53897;51.126;5.868;2023-02-23T02:55:36;21.49;45.52
66962;HTU21D;53897;51.126;5.868;2023-02-23T02:58:05;21.50;45.51
66962;HTU21D;53897;51.126;5.868;2023-02-23T03:00:41;21.48;45.50
66962;HTU21D;53897;51.126;5.868;2023-02-23T03:03:37;21.46;45.49
66962;HTU21D;53897;51.126;5.868;2023-02-23T03:12:25;21.44;45.48
66962;HTU21D;53897;51.126;5.868;2023-02-23T03:21:24;21.40;45.46
66962;HTU21D;53897;51.126;5.868;2023-02-23T03:24:26;21.39;45.47
66962;HTU21D;53897;51.126;5.868;2023-02-23T03:30:15;21.38;45.46
66962;HTU21D;53897;51.126;5.868;2023-02-23T03:33:14;21.36;45.45
66962;HTU21D;53897;51.126;5.868;2023-02-23T03:36:11;21.35;45.45
66962;HTU21D;53897;51.126;5.868;2023-02-23T03:39:02;21.34;45.45
66962;HTU21D;53897;51.126;5.868;2023-02-23T03:41:52;21.32;45.43
66962;HTU21D;53897;51.126;5.868;2023-02-23T03:44:43;21.32;45.44
66962;HTU21D;53897;51.126;5.868;2023-02-23T03:47:34;21.31;45.44
66962;HTU21D;53897;51.126;5.868;2023-02-23T03:50:34;21.31;45.43
66962;HTU21D;53897;51.126;5.868;2023-02-23T03:53:32;21.29;45.45
66962;HTU21D;53897;51.126;5.868;2023-02-23T03:56:21;21.29;45.45
66962;HTU21D;53897;51.126;5.868;2023-02-23T03:59:13;21.28;45.45
66962;HTU21D;53897;51.126;5.868;2023-02-23T04:02:00;21.25;45.45
66962;HTU21D;53897;51.126;5.868;2023-02-23T04:04:47;21.27;45.45
66962;HTU21D;53897;51.126;5.868;2023-02-23T04:07:33;21.24;45.44
66962;HTU21D;53897;51.126;5.868;2023-02-23T04:10:22;21.23;45.45
66962;HTU21D;53897;51.126;5.868;2023-02-23T04:13:14;21.23;45.45
66962;HTU21D;53897;51.126;5.868;2023-02-23T04:15:57;21.23;45.45
66962;HTU21D;53897;51.126;5.868;2023-02-23T04:18:30;21.21;45.46
66962;HTU21D;53897;51.126;5.868;2023-02-23T04:20:58;21.21;45.45
66962;HTU21D;53897;51.126;5.868;2023-02-23T04:23:25;21.21;45.45
66962;HTU21D;53897;51.126;5.868;2023-02-23T04:25:51;21.21;45.46
66962;HTU21D;53897;51.126;5.868;2023-02-23T04:28:20;21.19;45.45
66962;HTU21D;53897;51.126;5.868;2023-02-23T04:30:46;21.19;45.45
66962;HTU21D;53897;51.126;5.868;2023-02-23T04:33:13;21.19;45.44
66962;HTU21D;53897;51.126;5.868;2023-02-23T04:35:39;21.18;45.44
66962;HTU21D;53897;51.126;5.868;2023-02-23T04:38:05;21.17;45.44
66962;HTU21D;53897;51.126;5.868;2023-02-23T04:40:31;21.16;45.43
66962;HTU21D;53897;51.126;5.868;2023-02-23T04:42:57;21.16;45.41
66962;HTU21D;53897;51.126;5.868;2023-02-23T04:45:24;21.15;45.42
66962;HTU21D;53897;51.126;5.868;2023-02-23T04:47:50;21.15;45.39
66962;HTU21D;53897;51.126;5.868;2023-02-23T04:50:16;21.14;45.38
66962;HTU21D;53897;51.126;5.868;2023-02-23T04:52:42;21.13;45.40
66962;HTU21D;53897;51.126;5.868;2023-02-23T04:55:19;21.13;45.41
66962;HTU21D;53897;51.126;5.868;2023-02-23T04:57:45;21.13;45.41
66962;HTU21D;53897;51.126;5.868;2023-02-23T05:00:11;21.11;45.40
66962;HTU21D;53897;51.126;5.868;2023-02-23T05:02:37;21.11;45.41
66962;HTU21D;53897;51.126;5.868;2023-02-23T05:05:02;21.10;45.39
66962;HTU21D;53897;51.126;5.868;2023-02-23T05:07:28;21.09;45.40
66962;HTU21D;53897;51.126;5.868;2023-02-23T05:09:54;21.09;45.41
66962;HTU21D;53897;51.126;5.868;2023-02-23T05:12:20;21.07;45.40
66962;HTU21D;53897;51.126;5.868;2023-02-23T05:14:45;21.07;45.41
66962;HTU21D;53897;51.126;5.868;2023-02-23T05:17:11;21.06;45.41
66962;HTU21D;53897;51.126;5.868;2023-02-23T05:19:37;21.06;45.42
66962;HTU21D;53897;51.126;5.868;2023-02-23T05:22:03;21.05;45.43
66962;HTU21D;53897;51.126;5.868;2023-02-23T05:24:29;21.04;45.43
66962;HTU21D;53897;51.126;5.868;2023-02-23T05:26:54;21.03;45.41
66962;HTU21D;53897;51.126;5.868;2023-02-23T05:29:20;21.03;45.41
66962;HTU21D;53897;51.126;5.868;2023-02-23T05:31:46;21.02;45.44
66962;HTU21D;53897;51.126;5.868;2023-02-23T05:34:13;21.02;45.45
66962;HTU21D;53897;51.126;5.868;2023-02-23T05:36:41;21.01;45.45
66962;HTU21D;53897;51.126;5.868;2023-02-23T05:39:07;21.01;45.42
66962;HTU21D;53897;51.126;5.868;2023-02-23T05:41:33;21.00;45.42
66962;HTU21D;53897;51.126;5.868;2023-02-23T05:43:59;20.99;45.45
66962;HTU21D;53897;51.126;5.868;2023-02-23T05:46:26;20.98;45.44
66962;HTU21D;53897;51.126;5.868;2023-02-23T05:48:57;20.99;45.44
66962;HTU21D;53897;51.126;5.868;2023-02-23T05:51:24;20.96;45.45
66962;HTU21D;53897;51.126;5.868;2023-02-23T05:53:50;20.95;45.45
66962;HTU21D;53897;51.126;5.868;2023-02-23T05:56:16;20.95;45.45
66962;HTU21D;53897;51.126;5.868;2023-02-23T05:58:48;20.93;45.45
66962;HTU21D;53897;51.126;5.868;2023-02-23T06:01:15;20.94;45.46
66962;HTU21D;53897;51.126;5.868;2023-02-23T06:03:43;20.92;45.45
66962;HTU21D;53897;51.126;5.868;2023-02-23T06:06:09;20.92;45.45
66962;HTU21D;53897;51.126;5.868;2023-02-23T06:08:35;20.90;45.49
66962;HTU21D;53897;51.126;5.868;2023-02-23T06:11:01;20.90;45.55
66962;HTU21D;53897;51.126;5.868;2023-02-23T06:13:29;20.88;45.64
66962;HTU21D;53897;51.126;5.868;2023-02-23T06:15:56;20.89;45.66
66962;HTU21D;53897;51.126;5.868;2023-02-23T06:18:24;20.90;45.68
66962;HTU21D;53897;51.126;5.868;2023-02-23T06:20:50;20.91;45.73
66962;HTU21D;53897;51.126;5.868;2023-02-23T06:23:16;20.94;45.85
66962;HTU21D;53897;51.126;5.868;2023-02-23T06:25:43;20.98;45.90
66962;HTU21D;53897;51.126;5.868;2023-02-23T06:28:10;21.00;46.00
66962;HTU21D;53897;51.126;5.868;2023-02-23T06:30:36;21.05;46.22
66962;HTU21D;53897;51.126;5.868;2023-02-23T06:33:03;21.10;46.28
66962;HTU21D;53897;51.126;5.868;2023-02-23T06:35:30;21.14;46.35
66962;HTU21D;53897;51.126;5.868;2023-02-23T06:37:57;21.19;46.36
66962;HTU21D;53897;51.126;5.868;2023-02-23T06:40:23;21.22;46.39
66962;HTU21D;53897;51.126;5.868;2023-02-23T06:42:49;21.28;46.42
66962;HTU21D;53897;51.126;5.868;2023-02-23T06:45:15;21.32;46.38
66962;HTU21D;53897;51.126;5.868;2023-02-23T06:47:41;21.37;46.35
66962;HTU21D;53897;51.126;5.868;2023-02-23T06:50:08;21.39;46.31
66962;HTU21D;53897;51.126;5.868;2023-02-23T06:52:34;21.43;46.25
66962;HTU21D;53897;51.126;5.868;2023-02-23T06:55:00;21.45;46.22
66962;HTU21D;53897;51.126;5.868;2023-02-23T06:57:26;21.46;46.25
66962;HTU21D;53897;51.126;5.868;2023-02-23T06:59:52;21.48;46.24
66962;HTU21D;53897;51.126;5.868;2023-02-23T07:02:18;21.48;46.24
66962;HTU21D;53897;51.126;5.868;2023-02-23T07:04:44;21.50;46.25
66962;HTU21D;53897;51.126;5.868;2023-02-23T07:07:10;21.52;46.26
66962;HTU21D;53897;51.126;5.868;2023-02-23T07:09:38;21.52;46.28
66962;HTU21D;53897;51.126;5.868;2023-02-23T07:12:04;21.57;46.25
66962;HTU21D;53897;51.126;5.868;2023-02-23T07:14:30;21.60;46.17
66962;HTU21D;53897;51.126;5.868;2023-02-23T07:16:58;21.61;46.31
66962;HTU21D;53897;51.126;5.868;2023-02-23T07:19:24;21.62;46.46
66962;HTU21D;53897;51.126;5.868;2023-02-23T07:21:49;21.64;46.54
66962;HTU21D;53897;51.126;5.868;2023-02-23T07:24:15;21.64;46.67
66962;HTU21D;53897;51.126;5.868;2023-02-23T07:26:41;21.68;46.69
66962;HTU21D;53897;51.126;5.868;2023-02-23T07:29:11;21.69;46.73
66962;HTU21D;53897;51.126;5.868;2023-02-23T07:31:37;21.72;46.76
66962;HTU21D;53897;51.126;5.868;2023-02-23T07:34:03;21.75;46.72
66962;HTU21D;53897;51.126;5.868;2023-02-23T07:36:28;21.77;46.68
66962;HTU21D;53897;51.126;5.868;2023-02-23T07:38:54;21.79;46.63
66962;HTU21D;53897;51.126;5.868;2023-02-23T07:41:20;21.81;46.57
66962;HTU21D;53897;51.126;5.868;2023-02-23T07:43:46;21.83;46.50
66962;HTU21D;53897;51.126;5.868;2023-02-23T07:46:12;21.85;46.45
66962;HTU21D;53897;51.126;5.868;2023-02-23T07:48:41;21.85;46.40
66962;HTU21D;53897;51.126;5.868;2023-02-23T07:51:10;21.88;46.35
66962;HTU21D;53897;51.126;5.868;2023-02-23T07:53:37;21.91;46.31
66962;HTU21D;53897;51.126;5.868;2023-02-23T07:56:02;21.91;46.31
66962;HTU21D;53897;51.126;5.868;2023-02-23T07:58:28;21.92;46.31
66962;HTU21D;53897;51.126;5.868;2023-02-23T08:00:55;21.94;46.28
66962;HTU21D;53897;51.126;5.868;2023-02-23T08:03:21;21.94;46.24
66962;HTU21D;53897;51.126;5.868;2023-02-23T08:05:47;21.97;46.21
66962;HTU21D;53897;51.126;5.868;2023-02-23T08:08:13;21.98;46.15
66962;HTU21D;53897;51.126;5.868;2023-02-23T08:10:38;22.01;46.13
66962;HTU21D;53897;51.126;5.868;2023-02-23T08:13:04;22.02;46.11
66962;HTU21D;53897;51.126;5.868;2023-02-23T08:15:30;22.03;46.11
66962;HTU21D;53897;51.126;5.868;2023-02-23T08:17:56;22.05;46.09
66962;HTU21D;53897;51.126;5.868;2023-02-23T08:20:22;22.07;46.03
66962;HTU21D;53897;51.126;5.868;2023-02-23T08:22:55;22.08;45.98
66962;HTU21D;53897;51.126;5.868;2023-02-23T08:25:22;22.09;45.93
66962;HTU21D;53897;51.126;5.868;2023-02-23T08:27:49;22.11;45.62
66962;HTU21D;53897;51.126;5.868;2023-02-23T08:30:18;22.12;45.26
66962;HTU21D;53897;51.126;5.868;2023-02-23T08:32:44;22.13;45.28
66962;HTU21D;53897;51.126;5.868;2023-02-23T08:35:10;22.13;45.28
66962;HTU21D;53897;51.126;5.868;2023-02-23T08:37:36;22.13;45.19
66962;HTU21D;53897;51.126;5.868;2023-02-23T08:40:02;22.13;45.05
66962;HTU21D;53897;51.126;5.868;2023-02-23T08:42:28;22.14;44.88
66962;HTU21D;53897;51.126;5.868;2023-02-23T08:44:53;22.16;44.94
66962;HTU21D;53897;51.126;5.868;2023-02-23T08:47:19;22.16;45.04
66962;HTU21D;53897;51.126;5.868;2023-02-23T08:49:49;22.14;45.06
66962;HTU21D;53897;51.126;5.868;2023-02-23T08:52:15;22.14;45.06
66962;HTU21D;53897;51.126;5.868;2023-02-23T08:54:41;22.16;45.06
66962;HTU21D;53897;51.126;5.868;2023-02-23T08:57:07;22.16;45.07
66962;HTU21D;53897;51.126;5.868;2023-02-23T08:59:33;22.16;45.06
66962;HTU21D;53897;51.126;5.868;2023-02-23T09:01:59;22.18;45.07
66962;HTU21D;53897;51.126;5.868;2023-02-23T09:04:24;22.19;45.07
66962;HTU21D;53897;51.126;5.868;2023-02-23T09:06:50;22.20;45.04
66962;HTU21D;53897;51.126;5.868;2023-02-23T09:09:16;22.21;45.02
66962;HTU21D;53897;51.126;5.868;2023-02-23T09:11:42;22.23;45.02
66962;HTU21D;53897;51.126;5.868;2023-02-23T09:14:08;22.25;44.99
66962;HTU21D;53897;51.126;5.868;2023-02-23T09:16:35;22.27;44.96
66962;HTU21D;53897;51.126;5.868;2023-02-23T09:19:02;22.29;44.94
66962;HTU21D;53897;51.126;5.868;2023-02-23T09:21:28;22.29;44.93
66962;HTU21D;53897;51.126;5.868;2023-02-23T09:23:55;22.33;44.88
66962;HTU21D;53897;51.126;5.868;2023-02-23T09:26:22;22.33;44.81
66962;HTU21D;53897;51.126;5.868;2023-02-23T09:28:49;22.34;44.86
66962;HTU21D;53897;51.126;5.868;2023-02-23T09:31:18;22.35;44.91
66962;HTU21D;53897;51.126;5.868;2023-02-23T09:33:44;22.36;44.98
66962;HTU21D;53897;51.126;5.868;2023-02-23T09:36:14;22.38;44.99
66962;HTU21D;53897;51.126;5.868;2023-02-23T09:38:45;22.38;45.04
66962;HTU21D;53897;51.126;5.868;2023-02-23T09:44:02;22.42;45.12
66962;HTU21D;53897;51.126;5.868;2023-02-23T09:46:48;22.42;45.12
66962;HTU21D;53897;51.126;5.868;2023-02-23T09:49:19;22.42;45.18
66962;HTU21D;53897;51.126;5.868;2023-02-23T09:51:52;22.43;45.25
66962;HTU21D;53897;51.126;5.868;2023-02-23T09:54:29;22.44;45.28
66962;HTU21D;53897;51.126;5.868;2023-02-23T09:56:56;22.46;45.25
66962;HTU21D;53897;51.126;5.868;2023-02-23T09:59:24;22.47;45.24
66962;HTU21D;53897;51.126;5.868;2023-02-23T10:01:57;22.48;45.21
66962;HTU21D;53897;51.126;5.868;2023-02-23T10:04:35;22.48;45.20
66962;HTU21D;53897;51.126;5.868;2023-02-23T10:07:06;22.47;45.16
66962;HTU21D;53897;51.126;5.868;2023-02-23T10:16:06;22.49;45.22
66962;HTU21D;53897;51.126;5.868;2023-02-23T10:21:29;22.50;45.22
66962;HTU21D;53897;51.126;5.868;2023-02-23T10:24:21;22.51;45.22
66962;HTU21D;53897;51.126;5.868;2023-02-23T10:26:50;22.50;45.22
66962;HTU21D;53897;51.126;5.868;2023-02-23T10:32:41;22.50;45.22
66962;HTU21D;53897;51.126;5.868;2023-02-23T10:35:13;22.51;45.25
66962;HTU21D;53897;51.126;5.868;2023-02-23T10:37:39;22.50;45.28
66962;HTU21D;53897;51.126;5.868;2023-02-23T10:40:06;22.52;45.17
66962;HTU21D;53897;51.126;5.868;2023-02-23T10:42:33;22.51;45.13
66962;HTU21D;53897;51.126;5.868;2023-02-23T10:44:59;22.51;45.09
66962;HTU21D;53897;51.126;5.868;2023-02-23T10:47:29;22.51;45.06
66962;HTU21D;53897;51.126;5.868;2023-02-23T10:49:56;22.52;45.16
66962;HTU21D;53897;51.126;5.868;2023-02-23T10:52:39;22.53;45.24
66962;HTU21D;53897;51.126;5.868;2023-02-23T10:55:07;22.51;45.35
66962;HTU21D;53897;51.126;5.868;2023-02-23T10:57:37;22.52;45.38
66962;HTU21D;53897;51.126;5.868;2023-02-23T11:02:41;22.51;45.35
66962;HTU21D;53897;51.126;5.868;2023-02-23T11:08:18;22.52;45.34
66962;HTU21D;53897;51.126;5.868;2023-02-23T11:10:55;22.53;45.27
66962;HTU21D;53897;51.126;5.868;2023-02-23T11:13:23;22.53;45.23
66962;HTU21D;53897;51.126;5.868;2023-02-23T11:15:58;22.54;45.22
66962;HTU21D;53897;51.126;5.868;2023-02-23T11:18:25;22.53;45.25
66962;HTU21D;53897;51.126;5.868;2023-02-23T11:20:51;22.53;45.28
66962;HTU21D;53897;51.126;5.868;2023-02-23T11:23:26;22.53;45.33
66962;HTU21D;53897;51.126;5.868;2023-02-23T11:25:59;22.52;45.35
66962;HTU21D;53897;51.126;5.868;2023-02-23T11:28:29;22.51;45.39
66962;HTU21D;53897;51.126;5.868;2023-02-23T11:31:17;22.49;45.42
66962;HTU21D;53897;51.126;5.868;2023-02-23T11:33:45;22.50;45.45
66962;HTU21D;53897;51.126;5.868;2023-02-23T11:36:32;22.48;45.48
66962;HTU21D;53897;51.126;5.868;2023-02-23T11:39:20;22.49;45.46
66962;HTU21D;53897;51.126;5.868;2023-02-23T11:42:15;22.49;45.48
66962;HTU21D;53897;51.126;5.868;2023-02-23T11:44:41;22.48;45.48
66962;HTU21D;53897;51.126;5.868;2023-02-23T11:47:19;22.49;45.49
66962;HTU21D;53897;51.126;5.868;2023-02-23T11:49:47;22.49;45.49
66962;HTU21D;53897;51.126;5.868;2023-02-23T11:52:18;22.48;45.49
66962;HTU21D;53897;51.126;5.868;2023-02-23T11:55:00;22.50;45.45
66962;HTU21D;53897;51.126;5.868;2023-02-23T11:57:34;22.50;45.38
66962;HTU21D;53897;51.126;5.868;2023-02-23T12:00:11;22.51;45.32
66962;HTU21D;53897;51.126;5.868;2023-02-23T12:02:58;22.52;45.28
66962;HTU21D;53897;51.126;5.868;2023-02-23T12:05:30;22.53;45.22
66962;HTU21D;53897;51.126;5.868;2023-02-23T12:08:03;22.54;45.19
66962;HTU21D;53897;51.126;5.868;2023-02-23T12:10:37;22.54;45.21
66962;HTU21D;53897;51.126;5.868;2023-02-23T12:15:49;22.56;45.51
66962;HTU21D;53897;51.126;5.868;2023-02-23T12:26:49;22.57;45.48
66962;HTU21D;53897;51.126;5.868;2023-02-23T12:29:37;22.57;45.50
66962;HTU21D;53897;51.126;5.868;2023-02-23T12:32:11;22.58;45.41
66962;HTU21D;53897;51.126;5.868;2023-02-23T12:37:32;22.62;45.43
66962;HTU21D;53897;51.126;5.868;2023-02-23T12:40:26;22.61;45.59
66962;HTU21D;53897;51.126;5.868;2023-02-23T12:43:29;22.60;44.64
66962;HTU21D;53897;51.126;5.868;2023-02-23T12:46:06;22.58;44.48
66962;HTU21D;53897;51.126;5.868;2023-02-23T12:51:05;22.57;44.70
66962;HTU21D;53897;51.126;5.868;2023-02-23T12:53:40;22.56;44.78
66962;HTU21D;53897;51.126;5.868;2023-02-23T13:02:05;22.58;44.83
66962;HTU21D;53897;51.126;5.868;2023-02-23T13:05:15;22.57;44.83
66962;HTU21D;53897;51.126;5.868;2023-02-23T13:13:13;22.60;44.76
66962;HTU21D;53897;51.126;5.868;2023-02-23T13:15:59;22.61;44.77
66962;HTU21D;53897;51.126;5.868;2023-02-23T13:24:25;22.60;44.71
66962;HTU21D;53897;51.126;5.868;2023-02-23T13:29:25;22.60;44.67
66962;HTU21D;53897;51.126;5.868;2023-02-23T13:31:58;22.61;44.67
66962;HTU21D;53897;51.126;5.868;2023-02-23T13:34:29;22.60;44.67
66962;HTU21D;53897;51.126;5.868;2023-02-23T13:37:04;22.57;44.74
66962;HTU21D;53897;51.126;5.868;2023-02-23T13:42:46;22.57;44.67
66962;HTU21D;53897;51.126;5.868;2023-02-23T13:45:25;22.58;44.70
66962;HTU21D;53897;51.126;5.868;2023-02-23T13:48:00;22.58;44.53
66962;HTU21D;53897;51.126;5.868;2023-02-23T13:50:44;22.54;44.23
66962;HTU21D;53897;51.126;5.868;2023-02-23T13:54:04;22.52;44.14
66962;HTU21D;53897;51.126;5.868;2023-02-23T13:56:26;22.51;44.18
66962;HTU21D;53897;51.126;5.868;2023-02-23T13:59:16;22.48;44.26
66962;HTU21D;53897;51.126;5.868;2023-02-23T14:01:45;22.46;44.34
66962;HTU21D;53897;51.126;5.868;2023-02-23T14:04:19;22.46;44.44
66962;HTU21D;53897;51.126;5.868;2023-02-23T14:09:30;22.43;44.50
66962;HTU21D;53897;51.126;5.868;2023-02-23T14:14:47;22.42;44.51
66962;HTU21D;53897;51.126;5.868;2023-02-23T14:22:16;22.40;44.59
66962;HTU21D;53897;51.126;5.868;2023-02-23T14:25:37;22.39;44.61
66962;HTU21D;53897;51.126;5.868;2023-02-23T14:27:41;22.37;44.64
66962;HTU21D;53897;51.126;5.868;2023-02-23T14:32:42;22.38;44.62
66962;HTU21D;53897;51.126;5.868;2023-02-23T14:38:14;22.39;44.56
66962;HTU21D;53897;51.126;5.868;2023-02-23T14:40:42;22.39;44.56
66962;HTU21D;53897;51.126;5.868;2023-02-23T14:43:32;22.40;44.55
66962;HTU21D;53897;51.126;5.868;2023-02-23T14:46:17;22.39;44.53
66962;HTU21D;53897;51.126;5.868;2023-02-23T14:49:04;22.41;44.48
66962;HTU21D;53897;51.126;5.868;2023-02-23T14:51:40;22.40;44.48
66962;HTU21D;53897;51.126;5.868;2023-02-23T14:54:11;22.39;44.49
66962;HTU21D;53897;51.126;5.868;2023-02-23T14:56:48;22.41;44.48
66962;HTU21D;53897;51.126;5.868;2023-02-23T14:59:20;22.40;44.47
66962;HTU21D;53897;51.126;5.868;2023-02-23T15:01:48;22.39;44.48
66962;HTU21D;53897;51.126;5.868;2023-02-23T15:04:21;22.40;44.48
66962;HTU21D;53897;51.126;5.868;2023-02-23T15:06:48;22.39;44.48
66962;HTU21D;53897;51.126;5.868;2023-02-23T15:09:38;22.39;44.46
66962;HTU21D;53897;51.126;5.868;2023-02-23T15:12:15;22.38;44.50
66962;HTU21D;53897;51.126;5.868;2023-02-23T15:14:44;22.38;44.53
66962;HTU21D;53897;51.126;5.868;2023-02-23T15:17:17;22.38;44.52
66962;HTU21D;53897;51.126;5.868;2023-02-23T15:19:48;22.40;44.49
66962;HTU21D;53897;51.126;5.868;2023-02-23T15:22:24;22.39;44.56
66962;HTU21D;53897;51.126;5.868;2023-02-23T15:24:51;22.40;44.60
66962;HTU21D;53897;51.126;5.868;2023-02-23T15:27:22;22.41;44.63
66962;HTU21D;53897;51.126;5.868;2023-02-23T15:29:51;22.40;44.61
66962;HTU21D;53897;51.126;5.868;2023-02-23T15:32:22;22.41;44.56
66962;HTU21D;53897;51.126;5.868;2023-02-23T15:34:53;22.41;44.54
66962;HTU21D;53897;51.126;5.868;2023-02-23T15:37:48;22.41;44.48
66962;HTU21D;53897;51.126;5.868;2023-02-23T15:40:21;22.41;44.48
66962;HTU21D;53897;51.126;5.868;2023-02-23T15:42:55;22.42;44.41
66962;HTU21D;53897;51.126;5.868;2023-02-23T15:45:31;22.37;44.46
66962;HTU21D;53897;51.126;5.868;2023-02-23T15:48:04;22.32;44.66
66962;HTU21D;53897;51.126;5.868;2023-02-23T15:50:33;22.28;44.83
66962;HTU21D;53897;51.126;5.868;2023-02-23T15:53:07;22.24;44.97
66962;HTU21D;53897;51.126;5.868;2023-02-23T15:55:41;22.24;45.03
66962;HTU21D;53897;51.126;5.868;2023-02-23T15:58:24;22.26;44.87
66962;HTU21D;53897;51.126;5.868;2023-02-23T16:01:07;22.28;44.84
66962;HTU21D;53897;51.126;5.868;2023-02-23T16:03:37;22.29;45.03
66962;HTU21D;53897;51.126;5.868;2023-02-23T16:06:23;22.35;45.28
66962;HTU21D;53897;51.126;5.868;2023-02-23T16:09:46;22.36;45.77
66962;HTU21D;53897;51.126;5.868;2023-02-23T16:12:19;22.38;46.06
66962;HTU21D;53897;51.126;5.868;2023-02-23T16:17:41;22.43;46.83
66962;HTU21D;53897;51.126;5.868;2023-02-23T16:20:33;22.46;46.73
66962;HTU21D;53897;51.126;5.868;2023-02-23T16:23:04;22.47;46.45
66962;HTU21D;53897;51.126;5.868;2023-02-23T16:25:32;22.47;46.24
66962;HTU21D;53897;51.126;5.868;2023-02-23T16:28:07;22.47;46.05
66962;HTU21D;53897;51.126;5.868;2023-02-23T16:33:22;22.48;45.91
66962;HTU21D;53897;51.126;5.868;2023-02-23T16:36:03;22.48;45.80
66962;HTU21D;53897;51.126;5.868;2023-02-23T16:38:40;22.49;46.25
66962;HTU21D;53897;51.126;5.868;2023-02-23T16:41:16;22.48;46.73
66962;HTU21D;53897;51.126;5.868;2023-02-23T16:43:44;22.49;46.90
66962;HTU21D;53897;51.126;5.868;2023-02-23T16:46:12;22.52;47.09
66962;HTU21D;53897;51.126;5.868;2023-02-23T16:48:37;22.52;47.24
66962;HTU21D;53897;51.126;5.868;2023-02-23T16:51:12;22.52;47.31
66962;HTU21D;53897;51.126;5.868;2023-02-23T16:53:38;22.54;47.33
66962;HTU21D;53897;51.126;5.868;2023-02-23T16:56:05;22.56;47.30
66962;HTU21D;53897;51.126;5.868;2023-02-23T16:58:39;22.55;46.84
66962;HTU21D;53897;51.126;5.868;2023-02-23T17:01:05;22.55;46.76
66962;HTU21D;53897;51.126;5.868;2023-02-23T17:03:31;22.56;46.75
66962;HTU21D;53897;51.126;5.868;2023-02-23T17:05:57;22.56;46.83
66962;HTU21D;53897;51.126;5.868;2023-02-23T17:08:23;22.56;46.83
66962;HTU21D;53897;51.126;5.868;2023-02-23T17:10:53;22.56;46.83
66962;HTU21D;53897;51.126;5.868;2023-02-23T17:13:23;22.55;46.95
66962;HTU21D;53897;51.126;5.868;2023-02-23T17:15:51;22.52;47.09
66962;HTU21D;53897;51.126;5.868;2023-02-23T17:18:23;22.54;47.23
66962;HTU21D;53897;51.126;5.868;2023-02-23T17:20:50;22.56;47.40
66962;HTU21D;53897;51.126;5.868;2023-02-23T17:23:18;22.55;47.53
66962;HTU21D;53897;51.126;5.868;2023-02-23T17:25:44;22.57;47.69
66962;HTU21D;53897;51.126;5.868;2023-02-23T17:28:10;22.58;47.76
66962;HTU21D;53897;51.126;5.868;2023-02-23T17:30:37;22.57;47.77
66962;HTU21D;53897;51.126;5.868;2023-02-23T17:33:05;22.57;47.69
66962;HTU21D;53897;51.126;5.868;2023-02-23T17:35:31;22.57;47.55
66962;HTU21D;53897;51.126;5.868;2023-02-23T17:37:59;22.57;47.53
66962;HTU21D;53897;51.126;5.868;2023-02-23T17:40:25;22.57;47.63
66962;HTU21D;53897;51.126;5.868;2023-02-23T17:42:58;22.56;47.60
66962;HTU21D;53897;51.126;5.868;2023-02-23T17:45:25;22.57;47.56